Time;durP1;ratioP1;P1;durP2;ratioP2;P2;SDS_P1;SDS_P2;PMS_P1;PMS_P2;Temp;Humidity;BMP_temperature;BMP_pressure;BME280_temperature;BME280_humidity;BME280_pressure;Samples;Min_cycle;Max_cycle;Signal;HPM_P1;HPM_P2
2022/03/15 00:00:34;;;;;;;3.63;0.73;;;28.70;91.80;;;;;;4929086;29;20122;-72
2022/03/15 00:03:02;;;;;;;4.88;0.40;;;29.50;91.70;;;;;;4931467;28;20506;-72
2022/03/15 00:05:30;;;;;;;1.83;0.65;;;30.20;91.00;;;;;;4927560;29;20027;-71
2022/03/15 00:07:57;;;;;;;1.80;0.30;;;30.70;91.10;;;;;;4933219;29;20036;-70
2022/03/15 00:10:26;;;;;;;1.52;0.30;;;31.20;85.80;;;;;;4930740;28;20526;-76
2022/03/15 00:12:57;;;;;;;1.40;0.25;;;30.90;85.50;;;;;;4929762;29;20044;-74
2022/03/15 00:15:26;;;;;;;0.63;0.20;;;30.90;85.30;;;;;;4931392;29;20106;-73
2022/03/15 00:17:54;;;;;;;3.53;0.40;;;31.10;84.30;;;;;;4927111;29;20035;-72
2022/03/15 00:20:23;;;;;;;2.15;0.28;;;31.20;84.40;;;;;;4921822;29;20031;-73
2022/03/15 00:22:55;;;;;;;0.63;0.17;;;30.50;83.90;;;;;;4925314;29;20134;-72
2022/03/15 00:25:22;;;;;;;1.60;0.43;;;30.50;84.30;;;;;;4927102;29;20039;-72
2022/03/15 00:27:52;;;;;;;2.67;0.20;;;30.10;84.80;;;;;;4931271;29;20051;-72
2022/03/15 00:30:24;;;;;;;2.25;1.23;;;30.10;84.50;;;;;;4925423;29;20024;-72
2022/03/15 00:32:52;;;;;;;2.33;0.20;;;30.50;85.40;;;;;;4928973;29;20028;-73
2022/03/15 00:35:21;;;;;;;1.27;0.40;;;31.00;83.30;;;;;;4925923;29;20230;-72
2022/03/15 00:37:53;;;;;;;1.00;0.15;;;31.20;80.70;;;;;;4922078;29;20028;-73
2022/03/15 00:40:22;;;;;;;0.93;0.35;;;31.10;80.60;;;;;;4927239;29;20035;-74
2022/03/15 00:42:54;;;;;;;2.35;0.43;;;31.30;78.70;;;;;;4926224;29;20470;-74
2022/03/15 00:45:23;;;;;;;2.63;0.47;;;31.10;78.60;;;;;;4925119;29;20127;-72
2022/03/15 00:47:52;;;;;;;1.77;0.20;;;30.80;80.00;;;;;;4925517;29;20341;-72
2022/03/15 00:50:21;;;;;;;0.57;0.20;;;30.60;80.80;;;;;;4923804;29;20026;-71
2022/03/15 00:52:49;;;;;;;1.30;0.10;;;30.60;81.20;;;;;;4925358;29;20090;-73
2022/03/15 00:55:17;;;;;;;1.75;0.22;;;30.90;81.80;;;;;;4923877;28;20070;-72
2022/03/15 00:57:45;;;;;;;2.53;0.20;;;31.10;80.70;;;;;;4925780;29;20047;-72
2022/03/15 01:00:14;;;;;;;4.00;0.30;;;31.20;80.60;;;;;;4926224;29;20474;-72
2022/03/15 01:02:41;;;;;;;0.70;0.20;;;31.10;82.80;;;;;;4924592;29;20059;-72
2022/03/15 01:05:09;;;;;;;1.92;0.30;;;31.20;81.30;;;;;;4923668;29;20633;-72
2022/03/15 01:07:37;;;;;;;2.00;0.40;;;31.00;80.70;;;;;;4939163;28;20050;-72
2022/03/15 01:10:06;;;;;;;2.42;0.40;;;31.00;81.70;;;;;;4939576;29;20038;-72
2022/03/15 01:12:34;;;;;;;4.30;0.40;;;30.70;81.00;;;;;;4923582;29;20114;-71
2022/03/15 01:15:01;;;;;;;1.65;0.25;;;30.90;79.90;;;;;;4923155;29;20028;-71
2022/03/15 01:17:28;;;;;;;1.83;0.40;;;31.00;80.60;;;;;;4924650;29;20028;-71
2022/03/15 01:19:56;;;;;;;1.38;0.30;;;30.70;79.80;;;;;;4924893;28;20483;-73
2022/03/15 01:22:23;;;;;;;2.60;0.20;;;30.80;79.80;;;;;;4924739;29;20059;-71
2022/03/15 01:24:50;;;;;;;3.90;0.73;;;30.80;80.40;;;;;;4923805;29;20039;-72
2022/03/15 01:27:20;;;;;;;1.80;0.17;;;31.00;80.20;;;;;;4924591;29;20035;-72
2022/03/15 01:29:47;;;;;;;0.57;0.10;;;31.20;82.10;;;;;;4924318;29;20024;-72
2022/03/15 01:32:16;;;;;;;1.20;0.30;;;31.20;78.20;;;;;;4927608;29;20074;-72
2022/03/15 01:34:43;;;;;;;1.55;0.20;;;31.30;77.10;;;;;;4929217;29;20020;-74
2022/03/15 01:37:11;;;;;;;2.55;0.30;;;31.10;76.30;;;;;;4928591;29;20431;-72
2022/03/15 01:39:38;;;;;;;3.17;0.40;;;30.80;76.20;;;;;;4927395;29;20022;-72
2022/03/15 01:42:06;;;;;;;4.85;0.90;;;30.70;76.30;;;;;;4926404;29;20055;-73
2022/03/15 01:44:34;;;;;;;0.68;0.17;;;30.70;76.60;;;;;;4927254;29;20032;-75
2022/03/15 01:47:02;;;;;;;0.70;0.20;;;30.70;76.90;;;;;;4926568;29;20082;-73
2022/03/15 01:49:29;;;;;;;1.83;0.20;;;30.90;77.80;;;;;;4927664;29;20027;-72
2022/03/15 01:51:57;;;;;;;2.05;0.50;;;31.00;77.60;;;;;;4932224;29;20027;-73
2022/03/15 01:54:25;;;;;;;0.65;0.10;;;31.30;77.00;;;;;;4935488;29;20035;-74
2022/03/15 01:56:52;;;;;;;1.05;0.20;;;31.30;75.30;;;;;;4933852;29;20127;-71
2022/03/15 01:59:20;;;;;;;0.50;0.15;;;30.90;76.30;;;;;;4931607;29;20106;-73
2022/03/15 02:01:47;;;;;;;1.30;0.10;;;30.60;77.80;;;;;;4932827;29;20063;-72
2022/03/15 02:04:17;;;;;;;2.00;0.20;;;30.80;77.00;;;;;;4928554;29;20390;-72
2022/03/15 02:06:44;;;;;;;1.83;0.65;;;30.80;77.00;;;;;;4927744;29;20041;-70
2022/03/15 02:09:13;;;;;;;0.90;0.20;;;31.10;77.20;;;;;;4927176;29;20038;-70
2022/03/15 02:11:45;;;;;;;1.83;0.20;;;31.20;76.40;;;;;;4926127;29;20042;-71
2022/03/15 02:14:12;;;;;;;2.67;0.30;;;31.10;77.60;;;;;;4925713;29;20023;-72
2022/03/15 02:16:39;;;;;;;1.30;0.45;;;30.60;76.60;;;;;;4926436;29;20508;-72
2022/03/15 02:19:07;;;;;;;3.75;0.50;;;29.80;78.00;;;;;;4929494;29;20119;-73
2022/03/15 02:21:36;;;;;;;4.28;0.60;;;29.40;81.10;;;;;;4927670;29;20032;-74
2022/03/15 02:24:04;;;;;;;3.50;0.43;;;29.00;80.00;;;;;;4925902;29;20042;-73
2022/03/15 02:26:32;;;;;;;1.08;0.15;;;28.60;79.80;;;;;;4928680;28;20036;-74
2022/03/15 02:28:59;;;;;;;2.53;0.30;;;29.00;80.20;;;;;;4928992;29;20031;-73
2022/03/15 02:31:27;;;;;;;3.90;0.45;;;29.90;79.00;;;;;;4924594;29;20087;-72
2022/03/15 02:33:54;;;;;;;7.53;1.17;;;29.80;79.20;;;;;;4926306;29;20364;-70
2022/03/15 02:36:21;;;;;;;2.55;0.30;;;29.20;79.30;;;;;;4926302;29;20066;-70
2022/03/15 02:38:49;;;;;;;2.42;0.55;;;28.60;81.40;;;;;;4929376;29;20120;-70
2022/03/15 02:41:17;;;;;;;1.63;0.30;;;28.20;81.90;;;;;;4925707;29;20435;-72
2022/03/15 02:43:45;;;;;;;1.85;0.30;;;28.30;81.50;;;;;;4930069;29;20059;-70
2022/03/15 02:46:13;;;;;;;3.30;0.60;;;28.60;83.30;;;;;;4927140;28;20034;-71
2022/03/15 02:48:40;;;;;;;1.77;0.52;;;28.80;81.60;;;;;;4926430;29;20083;-70
2022/03/15 02:51:08;;;;;;;1.08;0.30;;;29.50;80.60;;;;;;4924102;29;20020;-70
2022/03/15 02:53:37;;;;;;;2.05;0.30;;;30.00;80.10;;;;;;4926226;29;20495;-71
2022/03/15 02:56:10;;;;;;;3.25;0.32;;;30.00;80.00;;;;;;4931948;29;20027;-70
2022/03/15 02:58:42;;;;;;;0.73;0.13;;;29.80;80.90;;;;;;4927112;28;20042;-70
2022/03/15 03:01:10;;;;;;;1.50;0.43;;;29.20;82.70;;;;;;4929802;29;20094;-70
2022/03/15 03:03:38;;;;;;;7.22;1.08;;;28.90;83.50;;;;;;4926929;29;20051;-70
2022/03/15 03:06:05;;;;;;;3.28;0.40;;;28.40;84.20;;;;;;4925768;29;20039;-74
2022/03/15 03:08:34;;;;;;;3.22;0.30;;;27.90;85.40;;;;;;4926363;29;20502;-72
2022/03/15 03:11:02;;;;;;;4.22;0.93;;;27.60;87.10;;;;;;4926323;29;20034;-71
2022/03/15 03:13:30;;;;;;;3.08;0.75;;;27.40;87.70;;;;;;4927079;29;20393;-71
2022/03/15 03:16:00;;;;;;;3.13;0.40;;;27.10;88.50;;;;;;4927393;29;20451;-71
2022/03/15 03:18:32;;;;;;;4.05;0.88;;;27.40;88.70;;;;;;4926979;29;20059;-72
2022/03/15 03:21:01;;;;;;;3.35;0.40;;;27.90;87.60;;;;;;4927680;29;20038;-72
2022/03/15 03:23:31;;;;;;;1.95;0.40;;;29.00;87.20;;;;;;4926078;29;20082;-74
2022/03/15 03:25:59;;;;;;;0.65;0.30;;;28.80;86.40;;;;;;4924406;29;20030;-74
2022/03/15 03:28:30;;;;;;;2.42;0.93;;;28.30;87.30;;;;;;4927388;29;20039;-73
2022/03/15 03:30:58;;;;;;;2.38;0.55;;;28.50;87.50;;;;;;4923773;29;20031;-72
2022/03/15 03:33:26;;;;;;;6.88;1.05;;;29.00;87.20;;;;;;4926936;29;20036;-75
2022/03/15 03:35:53;;;;;;;2.95;0.63;;;28.80;87.40;;;;;;4925516;29;20506;-74
2022/03/15 03:38:21;;;;;;;1.42;0.30;;;28.20;87.10;;;;;;4926920;29;20154;-75
2022/03/15 03:40:48;;;;;;;2.00;0.45;;;28.30;86.30;;;;;;4926177;29;20027;-72
2022/03/15 03:43:16;;;;;;;2.33;0.63;;;28.80;86.40;;;;;;4926071;29;20043;-72
2022/03/15 03:45:43;;;;;;;2.55;0.52;;;29.10;85.80;;;;;;4925661;29;20030;-73
2022/03/15 03:48:11;;;;;;;2.35;0.35;;;29.20;86.10;;;;;;4924752;29;20047;-73
2022/03/15 03:50:40;;;;;;;5.07;0.60;;;29.30;86.40;;;;;;4925435;29;20031;-72
2022/03/15 03:53:07;;;;;;;3.28;0.77;;;29.40;85.50;;;;;;4924122;29;20028;-72
2022/03/15 03:55:35;;;;;;;3.75;0.43;;;29.10;85.80;;;;;;4925066;29;20046;-75
2022/03/15 03:58:02;;;;;;;2.65;0.30;;;28.70;85.30;;;;;;4927408;29;20040;-73
2022/03/15 04:00:30;;;;;;;1.60;0.73;;;28.20;86.00;;;;;;4925871;29;20119;-72
2022/03/15 04:03:00;;;;;;;7.22;0.55;;;28.30;86.10;;;;;;4926234;29;20051;-71
2022/03/15 04:05:33;;;;;;;1.52;0.45;;;28.80;85.70;;;;;;4926800;28;20031;-72
2022/03/15 04:08:00;;;;;;;3.35;0.50;;;29.30;84.80;;;;;;4926983;29;20048;-75
2022/03/15 04:10:30;;;;;;;4.45;0.65;;;29.60;83.80;;;;;;4930802;29;20031;-71
2022/03/15 04:12:58;;;;;;;1.92;0.43;;;29.80;83.60;;;;;;4925536;29;20031;-74
2022/03/15 04:15:26;;;;;;;1.50;0.25;;;29.80;84.10;;;;;;4925497;29;20344;-72
2022/03/15 04:17:53;;;;;;;3.28;0.45;;;29.80;83.00;;;;;;4925872;29;20031;-72
2022/03/15 04:20:21;;;;;;;2.00;0.30;;;29.70;83.30;;;;;;4924604;29;20118;-73
2022/03/15 04:22:48;;;;;;;4.93;0.40;;;29.50;83.50;;;;;;4925374;29;20427;-73
2022/03/15 04:25:16;;;;;;;2.17;0.30;;;29.60;83.40;;;;;;4925816;29;20040;-75
2022/03/15 04:27:43;;;;;;;1.73;0.43;;;29.60;83.00;;;;;;4925826;28;20178;-73
2022/03/15 04:30:11;;;;;;;5.03;0.70;;;29.80;83.20;;;;;;4924617;29;20032;-73
2022/03/15 04:32:39;;;;;;;1.42;0.52;;;29.90;83.00;;;;;;4923920;29;20034;-71
2022/03/15 04:35:07;;;;;;;3.88;0.45;;;30.10;83.10;;;;;;4925862;29;20739;-72
2022/03/15 04:37:34;;;;;;;1.92;0.60;;;30.20;83.80;;;;;;4924506;29;20032;-73
2022/03/15 04:40:02;;;;;;;1.75;0.30;;;30.30;83.40;;;;;;4925517;29;20094;-76
2022/03/15 04:42:29;;;;;;;2.08;0.73;;;30.30;82.20;;;;;;4924461;29;20035;-72
2022/03/15 04:44:56;;;;;;;3.63;0.30;;;29.70;81.80;;;;;;4928195;29;20108;-76
2022/03/15 04:47:24;;;;;;;5.40;0.70;;;28.90;82.30;;;;;;4931377;29;20036;-75
2022/03/15 04:49:51;;;;;;;1.90;0.38;;;28.30;83.00;;;;;;4930833;29;20061;-73
2022/03/15 04:52:18;;;;;;;1.83;0.50;;;28.20;84.40;;;;;;4928106;29;20489;-74
2022/03/15 04:54:46;;;;;;;3.38;0.70;;;28.40;84.80;;;;;;4930895;29;20027;-75
2022/03/15 04:57:13;;;;;;;8.45;0.70;;;28.70;83.80;;;;;;4924633;28;20028;-70
2022/03/15 04:59:41;;;;;;;3.13;0.28;;;29.10;84.00;;;;;;4924184;29;20028;-71
2022/03/15 05:02:08;;;;;;;1.50;0.45;;;29.20;84.00;;;;;;4922305;29;20123;-73
2022/03/15 05:04:36;;;;;;;2.85;0.40;;;29.00;83.90;;;;;;4925638;29;20517;-72
2022/03/15 05:07:03;;;;;;;5.43;0.30;;;28.80;84.50;;;;;;4924051;29;20051;-72
2022/03/15 05:09:31;;;;;;;4.13;0.20;;;28.50;85.20;;;;;;4925385;29;20032;-71
2022/03/15 05:11:59;;;;;;;5.70;0.70;;;28.50;86.10;;;;;;4923063;29;20079;-72
2022/03/15 05:14:27;;;;;;;4.30;0.50;;;28.60;86.50;;;;;;4924913;29;20031;-73
2022/03/15 05:16:55;;;;;;;2.63;0.70;;;28.60;86.80;;;;;;4925843;29;20482;-75
2022/03/15 05:19:22;;;;;;;1.75;0.20;;;28.60;86.40;;;;;;4928733;29;20031;-74
2022/03/15 05:21:50;;;;;;;4.00;0.30;;;28.60;85.40;;;;;;4924565;29;20125;-71
2022/03/15 05:24:17;;;;;;;1.58;0.30;;;28.40;85.90;;;;;;4925086;29;20050;-73
2022/03/15 05:26:44;;;;;;;4.05;0.63;;;28.10;86.70;;;;;;4923937;29;20063;-74
2022/03/15 05:29:12;;;;;;;6.35;0.55;;;27.90;87.00;;;;;;4924852;29;20378;-73
2022/03/15 05:31:39;;;;;;;6.65;0.60;;;27.80;87.10;;;;;;4937881;29;20395;-75
2022/03/15 05:34:07;;;;;;;1.55;0.30;;;27.80;86.50;;;;;;4924975;29;20076;-74
2022/03/15 05:36:34;;;;;;;2.83;0.43;;;27.70;87.30;;;;;;4921928;29;20071;-71
2022/03/15 05:39:01;;;;;;;5.75;0.70;;;27.80;87.50;;;;;;4927216;29;20027;-73
2022/03/15 05:41:29;;;;;;;3.45;0.88;;;27.90;87.60;;;;;;4931000;29;20499;-73
2022/03/15 05:43:56;;;;;;;2.40;0.50;;;27.80;87.50;;;;;;4924955;28;20486;-73
2022/03/15 05:46:24;;;;;;;5.40;0.47;;;27.70;88.10;;;;;;4923861;29;20110;-68
2022/03/15 05:48:52;;;;;;;3.15;0.57;;;27.60;87.90;;;;;;4922991;29;20046;-72
2022/03/15 05:51:19;;;;;;;2.90;0.32;;;27.60;87.80;;;;;;4924185;29;20054;-77
2022/03/15 05:53:47;;;;;;;3.25;0.40;;;27.60;87.30;;;;;;4925626;29;20051;-76
2022/03/15 05:56:14;;;;;;;3.40;0.30;;;27.70;87.90;;;;;;4924140;29;20028;-74
2022/03/15 05:58:43;;;;;;;2.83;0.30;;;27.60;88.10;;;;;;4926002;29;20032;-74
2022/03/15 06:01:11;;;;;;;1.83;0.30;;;27.50;87.80;;;;;;4923933;29;20575;-72
2022/03/15 06:03:38;;;;;;;1.75;0.50;;;27.20;88.30;;;;;;4927441;29;20133;-73
2022/03/15 06:06:06;;;;;;;4.57;0.40;;;27.10;88.30;;;;;;4923766;29;21318;-72
2022/03/15 06:08:33;;;;;;;3.72;0.70;;;26.90;88.70;;;;;;4925156;29;20458;-74
2022/03/15 06:11:03;;;;;;;9.35;0.80;;;27.00;89.00;;;;;;4924183;29;20027;-72
2022/03/15 06:13:30;;;;;;;0.75;0.40;;;27.00;88.50;;;;;;4925719;29;20027;-72
2022/03/15 06:15:58;;;;;;;5.20;0.57;;;27.20;88.80;;;;;;4923282;29;20028;-74
2022/03/15 06:18:25;;;;;;;1.48;0.30;;;27.30;88.70;;;;;;4927581;29;20438;-74
2022/03/15 06:20:52;;;;;;;3.03;0.40;;;27.30;88.10;;;;;;4927446;29;20036;-74
2022/03/15 06:23:25;;;;;;;0.85;0.20;;;27.20;88.50;;;;;;4926312;29;20063;-73
2022/03/15 06:25:52;;;;;;;3.67;0.43;;;26.80;88.50;;;;;;4927317;29;20032;-73
2022/03/15 06:28:19;;;;;;;3.40;0.43;;;26.60;89.40;;;;;;4929191;29;20043;-73
2022/03/15 06:30:48;;;;;;;9.70;1.20;;;26.50;89.30;;;;;;4926790;28;20032;-73
2022/03/15 06:33:15;;;;;;;3.20;0.50;;;26.30;89.80;;;;;;4927180;29;20050;-74
2022/03/15 06:35:42;;;;;;;2.42;0.45;;;26.20;90.10;;;;;;4925840;29;20068;-74
2022/03/15 06:38:11;;;;;;;3.10;0.30;;;26.00;90.10;;;;;;4927946;29;20027;-76
2022/03/15 06:40:40;;;;;;;2.47;0.43;;;25.90;90.60;;;;;;4928094;29;20035;-74
2022/03/15 06:43:12;;;;;;;2.10;0.47;;;25.80;90.50;;;;;;4927525;29;20098;-74
2022/03/15 06:45:42;;;;;;;2.35;0.20;;;25.80;90.60;;;;;;4926754;29;20565;-73
2022/03/15 06:48:10;;;;;;;6.80;0.88;;;25.80;90.50;;;;;;4927279;29;20697;-74
2022/03/15 06:50:40;;;;;;;1.15;0.50;;;25.80;90.70;;;;;;4927313;29;20390;-74
2022/03/15 06:53:07;;;;;;;3.28;0.50;;;25.70;90.70;;;;;;4927702;29;20064;-72
2022/03/15 06:55:35;;;;;;;4.30;0.60;;;25.70;90.90;;;;;;4927010;29;20060;-73
2022/03/15 06:58:02;;;;;;;3.45;0.43;;;25.60;91.00;;;;;;4927416;29;20066;-73
2022/03/15 07:00:30;;;;;;;4.72;0.82;;;25.50;91.30;;;;;;4924858;29;20672;-72
2022/03/15 07:02:57;;;;;;;3.38;0.40;;;25.40;91.60;;;;;;4925032;29;20134;-71
2022/03/15 07:05:25;;;;;;;3.22;1.10;;;25.40;92.60;;;;;;4925693;29;20079;-73
2022/03/15 07:07:53;;;;;;;2.75;0.52;;;25.20;93.50;;;;;;4924328;29;20039;-72
2022/03/15 07:10:20;;;;;;;3.17;0.30;;;25.10;93.80;;;;;;4924770;29;20497;-72
2022/03/15 07:12:48;;;;;;;4.10;0.52;;;25.00;94.00;;;;;;4927755;29;20043;-73
2022/03/15 07:15:17;;;;;;;1.75;0.55;;;25.00;94.10;;;;;;4927561;29;20038;-74
2022/03/15 07:17:57;;;;;;;3.88;0.88;;;25.00;94.00;;;;;;4928109;29;20028;-72
2022/03/15 07:20:26;;;;;;;1.25;0.28;;;24.80;93.80;;;;;;4940536;29;20485;-71
2022/03/15 07:22:59;;;;;;;4.03;0.40;;;24.70;94.10;;;;;;4922450;29;20036;-71
2022/03/15 07:25:26;;;;;;;2.42;0.70;;;24.60;94.20;;;;;;4927376;29;20034;-72
2022/03/15 07:27:54;;;;;;;4.18;0.30;;;24.50;94.30;;;;;;4926093;29;20056;-72
2022/03/15 07:30:21;;;;;;;5.13;0.70;;;24.50;94.20;;;;;;4934655;29;20114;-72
2022/03/15 07:32:49;;;;;;;5.88;0.82;;;24.40;94.20;;;;;;4934821;29;20042;-71
2022/03/15 07:35:17;;;;;;;3.92;0.30;;;24.40;94.30;;;;;;4932550;29;20024;-73
2022/03/15 07:37:56;;;;;;;5.22;0.52;;;24.30;94.60;;;;;;4930425;29;20034;-72
2022/03/15 07:40:26;;;;;;;6.30;0.57;;;24.20;94.80;;;;;;4925444;29;20122;-72
2022/03/15 07:42:53;;;;;;;4.95;1.13;;;24.10;94.70;;;;;;4922582;29;20067;-72
2022/03/15 07:45:21;;;;;;;4.18;0.50;;;24.00;94.90;;;;;;4928055;29;20047;-70
2022/03/15 07:47:48;;;;;;;5.88;0.63;;;24.00;95.00;;;;;;4925767;29;20036;-70
2022/03/15 07:50:17;;;;;;;4.75;0.50;;;24.00;95.00;;;;;;4932277;29;20023;-71
2022/03/15 07:52:44;;;;;;;7.20;0.65;;;24.00;95.10;;;;;;4932088;29;20743;-72
2022/03/15 07:55:11;;;;;;;4.35;0.80;;;23.90;95.20;;;;;;4932701;28;20114;-72
2022/03/15 07:57:39;;;;;;;2.38;0.55;;;23.80;95.40;;;;;;4932199;29;20024;-71
2022/03/15 08:00:07;;;;;;;3.80;0.47;;;23.80;95.40;;;;;;4933980;29;20090;-73
2022/03/15 08:02:34;;;;;;;2.40;0.30;;;23.70;95.50;;;;;;4932385;28;20554;-71
2022/03/15 08:05:03;;;;;;;6.57;0.50;;;23.70;95.70;;;;;;4932181;29;20402;-71
2022/03/15 08:07:30;;;;;;;6.47;0.70;;;23.60;95.80;;;;;;4932512;29;20048;-70
2022/03/15 08:09:58;;;;;;;1.10;0.38;;;23.50;95.90;;;;;;4930863;29;20028;-70
2022/03/15 08:12:26;;;;;;;3.67;0.50;;;23.50;96.00;;;;;;4924850;29;20061;-72
2022/03/15 08:14:53;;;;;;;5.78;0.57;;;23.50;96.00;;;;;;4930084;29;20020;-71
2022/03/15 08:17:20;;;;;;;2.38;0.65;;;23.50;96.10;;;;;;4932852;28;20042;-70
2022/03/15 08:19:48;;;;;;;3.67;0.40;;;23.50;96.10;;;;;;4934255;29;20383;-71
2022/03/15 08:22:15;;;;;;;5.72;0.73;;;23.40;96.30;;;;;;4932211;28;20042;-72
2022/03/15 08:24:42;;;;;;;2.60;1.10;;;23.40;96.30;;;;;;4929149;29;20038;-70
2022/03/15 08:27:10;;;;;;;4.38;0.52;;;23.40;96.40;;;;;;4926428;29;20494;-69
2022/03/15 08:29:37;;;;;;;4.38;1.02;;;23.40;96.40;;;;;;4927941;29;20039;-71
2022/03/15 08:32:06;;;;;;;3.80;0.40;;;23.30;96.50;;;;;;4931115;29;20082;-71
2022/03/15 08:34:34;;;;;;;2.85;1.20;;;23.30;96.80;;;;;;4930067;29;20534;-70
2022/03/15 08:37:02;;;;;;;4.63;1.20;;;23.20;97.00;;;;;;4926360;29;20028;-70
2022/03/15 08:39:32;;;;;;;7.75;0.70;;;23.20;97.10;;;;;;4932210;29;20024;-71
2022/03/15 08:45:22;;;;;;;4.00;0.38;;;23.10;97.20;;;;;;4931694;28;20047;-71
2022/03/15 08:47:50;;;;;;;4.45;0.90;;;23.00;97.40;;;;;;4925988;28;20067;-73
2022/03/15 08:50:19;;;;;;;3.72;0.60;;;23.00;97.30;;;;;;4922950;29;20443;-71
2022/03/15 08:52:48;;;;;;;2.13;0.32;;;22.90;97.40;;;;;;4929662;29;22043;-71
2022/03/15 08:55:16;;;;;;;5.47;0.57;;;22.80;97.50;;;;;;4923501;29;20154;-73
2022/03/15 08:57:44;;;;;;;5.32;0.60;;;22.80;97.80;;;;;;4925854;28;20559;-75
2022/03/15 09:00:12;;;;;;;4.38;0.45;;;22.80;98.00;;;;;;4926700;29;20024;-72
2022/03/15 09:02:39;;;;;;;2.95;0.43;;;22.70;98.10;;;;;;4923769;29;20129;-71
2022/03/15 09:05:07;;;;;;;2.22;0.35;;;22.70;98.20;;;;;;4921388;29;20020;-71
2022/03/15 09:07:36;;;;;;;3.42;0.90;;;22.70;98.20;;;;;;4922400;29;20036;-72
2022/03/15 09:10:04;;;;;;;5.32;1.00;;;22.70;98.50;;;;;;4921631;29;20505;-72
2022/03/15 09:12:32;;;;;;;3.72;0.75;;;22.70;98.40;;;;;;4922871;29;20086;-71
2022/03/15 09:14:59;;;;;;;2.28;0.85;;;22.70;98.40;;;;;;4921207;29;20074;-73
2022/03/15 09:17:27;;;;;;;5.68;0.95;;;22.60;98.60;;;;;;4922650;29;20475;-73
2022/03/15 09:19:54;;;;;;;1.02;0.30;;;22.70;98.60;;;;;;4924033;29;20039;-73
2022/03/15 09:22:22;;;;;;;3.90;0.50;;;22.60;98.80;;;;;;4922726;29;20039;-71
2022/03/15 09:24:52;;;;;;;3.30;0.77;;;22.60;98.90;;;;;;4925024;29;20023;-73
2022/03/15 09:27:19;;;;;;;4.28;1.10;;;22.40;99.30;;;;;;4923408;29;20047;-70
2022/03/15 09:29:46;;;;;;;3.85;0.70;;;22.10;99.70;;;;;;4924976;29;20504;-74
2022/03/15 09:32:14;;;;;;;9.65;1.00;;;22.10;99.90;;;;;;4922411;29;20031;-71
2022/03/15 09:34:43;;;;;;;4.70;0.75;;;21.90;99.90;;;;;;4922887;29;20035;-71
2022/03/15 09:37:11;;;;;;;4.10;0.77;;;21.90;99.90;;;;;;4922714;29;20028;-71
2022/03/15 09:39:38;;;;;;;6.88;1.23;;;21.80;99.90;;;;;;4923644;29;20933;-71
2022/03/15 09:42:11;;;;;;;3.17;1.25;;;21.70;99.90;;;;;;4921965;29;20043;-70
2022/03/15 09:44:42;;;;;;;3.25;0.45;;;21.70;99.90;;;;;;4924093;29;20031;-70
2022/03/15 09:47:10;;;;;;;4.00;0.50;;;21.60;99.90;;;;;;4920309;29;20094;-78
2022/03/15 09:49:38;;;;;;;2.10;0.40;;;21.60;99.90;;;;;;4919747;29;20430;-74
2022/03/15 09:52:07;;;;;;;4.07;0.80;;;21.60;99.90;;;;;;4924071;29;20035;-74
2022/03/15 09:54:35;;;;;;;4.78;0.98;;;21.60;99.90;;;;;;4927782;29;20045;-76
2022/03/15 09:57:05;;;;;;;4.85;0.65;;;21.50;99.90;;;;;;4926184;28;20091;-73
2022/03/15 09:59:33;;;;;;;7.00;1.17;;;21.40;99.90;;;;;;4925453;29;20110;-74
2022/03/15 10:02:01;;;;;;;4.78;0.50;;;21.40;99.90;;;;;;4925117;29;20055;-75
2022/03/15 10:04:29;;;;;;;4.68;0.68;;;21.40;99.90;;;;;;4927737;29;20023;-75
2022/03/15 10:06:57;;;;;;;6.10;0.57;;;21.40;99.90;;;;;;4927419;29;20035;-72
2022/03/15 10:09:26;;;;;;;5.93;0.75;;;21.40;99.90;;;;;;4931203;29;20161;-72
2022/03/15 10:11:54;;;;;;;1.23;1.05;;;21.30;99.90;;;;;;4933717;29;20019;-71
2022/03/15 10:14:21;;;;;;;9.68;1.70;;;21.20;99.90;;;;;;4933537;29;20058;-71
2022/03/15 10:16:50;;;;;;;1.50;1.00;;;21.20;99.90;;;;;;4933078;29;20114;-70
2022/03/15 10:19:17;;;;;;;4.38;0.50;;;21.10;99.90;;;;;;4933713;29;20047;-73
2022/03/15 10:22:04;;;;;;;2.78;0.40;;;21.10;99.90;;;;;;4932544;29;20070;-72
2022/03/15 10:24:32;;;;;;;2.67;0.95;;;21.00;99.90;;;;;;4926777;28;20031;-73
2022/03/15 10:27:02;;;;;;;5.97;0.45;;;21.00;99.90;;;;;;4932120;28;20027;-73
2022/03/15 10:29:30;;;;;;;6.47;1.45;;;20.90;99.90;;;;;;4934114;28;20038;-73
2022/03/15 10:31:59;;;;;;;1.63;0.80;;;20.90;99.90;;;;;;4933024;29;20028;-71
2022/03/15 10:34:29;;;;;;;6.40;0.73;;;20.90;99.90;;;;;;4930959;29;20039;-70
2022/03/15 10:36:56;;;;;;;4.93;0.60;;;20.80;99.90;;;;;;4934391;29;20031;-71
2022/03/15 10:39:26;;;;;;;4.05;1.02;;;20.80;99.90;;;;;;4934554;29;20569;-71
2022/03/15 10:41:56;;;;;;;2.42;1.17;;;20.80;99.90;;;;;;4931078;29;20051;-70
2022/03/15 10:44:34;;;;;;;4.07;0.85;;;20.70;99.90;;;;;;4926928;28;20032;-71
2022/03/15 10:47:04;;;;;;;9.07;1.05;;;20.80;99.90;;;;;;4932606;29;20506;-71
2022/03/15 10:49:45;;;;;;;2.65;0.55;;;20.80;99.90;;;;;;4935496;29;20038;-73
2022/03/15 10:52:13;;;;;;;2.05;0.55;;;20.80;99.90;;;;;;4926327;29;20032;-71
2022/03/15 10:54:42;;;;;;;4.90;0.70;;;20.80;99.90;;;;;;4924444;29;20031;-72
2022/03/15 10:57:09;;;;;;;5.35;1.05;;;20.80;99.90;;;;;;4926099;29;20031;-73
2022/03/15 10:59:39;;;;;;;3.70;0.60;;;20.80;99.90;;;;;;4926681;29;20095;-72
2022/03/15 11:02:13;;;;;;;4.97;1.50;;;20.70;99.90;;;;;;4927484;29;20035;-73
2022/03/15 11:04:49;;;;;;;3.63;0.57;;;20.70;99.90;;;;;;4929108;29;20580;-72
2022/03/15 11:07:17;;;;;;;4.57;0.55;;;20.70;99.90;;;;;;4924730;29;20031;-71
2022/03/15 11:09:44;;;;;;;2.67;1.05;;;20.70;99.90;;;;;;4926205;29;20024;-71
2022/03/15 11:12:11;;;;;;;4.03;0.63;;;20.70;99.90;;;;;;4926252;29;20059;-71
2022/03/15 11:14:57;;;;;;;5.80;1.73;;;20.70;99.90;;;;;;4926833;29;20031;-71
2022/03/15 11:17:26;;;;;;;4.95;1.75;;;20.70;99.90;;;;;;4926941;29;20027;-71
2022/03/15 11:20:05;;;;;;;2.70;0.45;;;20.70;99.90;;;;;;4932514;29;20035;-70
2022/03/15 11:22:35;;;;;;;5.63;1.40;;;20.70;99.90;;;;;;4929915;28;20024;-72
2022/03/15 11:25:17;;;;;;;3.20;0.70;;;20.60;99.90;;;;;;4926572;29;20028;-71
2022/03/15 11:27:46;;;;;;;1.52;0.45;;;20.60;99.90;;;;;;4929707;29;20078;-69
2022/03/15 11:30:16;;;;;;;4.97;0.60;;;20.60;99.90;;;;;;4945917;28;20110;-72
2022/03/15 11:32:44;;;;;;;3.65;0.70;;;20.60;99.90;;;;;;4929583;29;20038;-70
2022/03/15 11:35:13;;;;;;;8.75;1.58;;;20.60;99.90;;;;;;4928374;29;20027;-71
2022/03/15 11:37:42;;;;;;;2.88;1.05;;;20.60;99.90;;;;;;4934376;29;20068;-70
2022/03/15 11:40:12;;;;;;;3.22;0.68;;;20.60;99.90;;;;;;4931394;29;20154;-71
2022/03/15 11:42:47;;;;;;;6.82;1.02;;;20.60;99.90;;;;;;4933036;29;20074;-70
2022/03/15 11:45:44;;;;;;;;;;;20.60;99.90;;;;;;4931557;28;20123;-70
2022/03/15 11:48:34;;;;;;;11.25;1.73;;;20.60;99.90;;;;;;4927350;29;20385;-71
2022/03/15 11:51:20;;;;;;;2.38;0.93;;;20.70;99.90;;;;;;4921803;29;20047;-72
2022/03/15 11:54:13;;;;;;;7.20;1.20;;;20.70;99.90;;;;;;4930459;29;20110;-73
2022/03/15 11:56:52;;;;;;;4.35;0.55;;;20.70;99.90;;;;;;4926988;29;20103;-75
2022/03/15 11:59:20;;;;;;;8.05;0.68;;;20.70;99.90;;;;;;4924482;29;20068;-72
2022/03/15 12:01:52;;;;;;;6.40;0.90;;;20.80;99.90;;;;;;4932309;29;20047;-71
2022/03/15 12:04:31;;;;;;;5.68;0.75;;;20.70;99.90;;;;;;4926659;28;20032;-75
2022/03/15 12:07:00;;;;;;;2.90;0.60;;;20.70;99.90;;;;;;4930594;29;20036;-71
2022/03/15 12:09:32;;;;;;;2.35;0.68;;;20.60;99.90;;;;;;4933325;29;20044;-72
2022/03/15 12:12:09;;;;;;;5.72;0.70;;;20.60;99.90;;;;;;4930425;29;20028;-73
2022/03/15 12:14:52;;;;;;;3.40;0.95;;;20.60;99.90;;;;;;4932182;28;20394;-76
2022/03/15 12:17:20;;;;;;;4.03;0.68;;;20.60;99.90;;;;;;4930066;29;20023;-74
2022/03/15 12:19:50;;;;;;;2.45;1.08;;;20.60;99.90;;;;;;4932285;29;20044;-75
2022/03/15 12:22:26;;;;;;;6.57;0.60;;;20.60;99.90;;;;;;4932450;28;20032;-75
2022/03/15 12:25:07;;;;;;;4.22;0.55;;;20.60;99.90;;;;;;4932318;29;20082;-74
2022/03/15 12:27:46;;;;;;;8.18;1.83;;;20.70;99.90;;;;;;4930923;29;20032;-73
2022/03/15 12:30:30;;;;;;;4.93;0.55;;;20.70;99.90;;;;;;4944733;28;20024;-72
2022/03/15 12:32:58;;;;;;;3.67;0.40;;;20.80;99.90;;;;;;4927623;29;20035;-73
2022/03/15 12:35:30;;;;;;;5.13;0.70;;;20.70;99.90;;;;;;4930443;29;20027;-74
2022/03/15 12:38:10;;;;;;;2.60;0.43;;;20.80;99.90;;;;;;4932477;29;20038;-71
2022/03/15 12:40:45;;;;;;;4.25;0.60;;;20.80;99.90;;;;;;4930501;29;20028;-71
2022/03/15 12:43:23;;;;;;;1.75;0.38;;;20.80;99.90;;;;;;4932672;29;20073;-72
2022/03/15 12:45:51;;;;;;;2.78;1.33;;;20.80;99.90;;;;;;4932629;29;20039;-71
2022/03/15 12:48:30;;;;;;;2.22;0.40;;;20.70;99.90;;;;;;4932853;29;20127;-74
2022/03/15 12:51:01;;;;;;;1.08;0.32;;;20.60;99.90;;;;;;4931547;29;20023;-73
2022/03/15 12:53:43;;;;;;;1.08;0.30;;;20.50;99.90;;;;;;4931291;29;20110;-72
2022/03/15 12:56:12;;;;;;;4.88;0.70;;;20.40;99.90;;;;;;4925468;29;20023;-75
2022/03/15 12:58:43;;;;;;;4.45;0.40;;;20.30;99.90;;;;;;4925771;29;20024;-72
2022/03/15 13:01:12;;;;;;;3.47;0.50;;;20.20;99.90;;;;;;4930138;29;20019;-72